Silver Wind — C6FG2 — position and weather

sailwx.info

Track history (hours):
 
Tides and Currents Weather Stations Pressure Air Temp Water Temp Dewpoint Dewpoint Depression Visibility Wind Speed Wind Dir Waves Ship Positions

Silver Wind

Operator: V Ships Leisure

Last reported at 2017-Jul-24 08:00 UTC. Time now 2017-Jul-24 08:24 UTC.
Position N 67°17' E 014°23'.

Length 156 m; draft 5.7 m.

Type: Passenger vessel. MMSI: 308814000.

Date/timePositionNaut miles runAvg speedWind from/ knotsBaromVisibWave heightAir tempDewpointWater temp
2017-Jul-24 08:00N 67°17' E 014°23'0 0.0
2017-Jul-24 07:30N 67°17' E 014°23'0 0.0
2017-Jul-24 07:00N 67°17' E 014°23'0 0.0
2017-Jul-24 06:30N 67°17' E 014°23'0 0.0
2017-Jul-24 06:00N 67°17' E 014°23'0 0.0
2017-Jul-24 05:30N 67°17' E 014°23'2 4.6
2017-Jul-24 05:00N 67°17' E 014°17'4 9.0
2017-Jul-24 04:31N 67°21' E 014°22'510.5
2017-Jul-24 04:00N 67°26' E 014°27'611.5
2017-Jul-24 03:30N 67°31' E 014°20'611.9
2017-Jul-24 03:00N 67°37' E 014°15'611.4
2017-Jul-24 02:30N 67°42' E 014°12'510.9
2017-Jul-24 02:00N 67°48' E 014°13'611.3
2017-Jul-24 01:30N 67°52' E 014°21'611.4
2017-Jul-24 01:01N 67°57' E 014°30'611.1
2017-Jul-24 00:30N 68°01' E 014°41'510.8
2017-Jul-24 00:00N 68°04' E 014°52'610.9
2017-Jul-23 23:30N 68°07' E 015°04'611.2
2017-Jul-23 23:00N 68°10' E 015°17'611.5
2017-Jul-23 22:30N 68°12' E 015°31'611.3
2017-Jul-23 22:00N 68°15' E 015°44'611.5
2017-Jul-23 21:30N 68°19' E 015°56'611.6
2017-Jul-23 21:00N 68°24' E 016°02'510.6
2017-Jul-23 20:30N 68°29' E 016°07'611.0
2017-Jul-23 20:00N 68°33' E 016°18'611.1
2017-Jul-23 19:30N 68°35' E 016°32'611.6
2017-Jul-23 19:01N 68°40' E 016°38'611.3
2017-Jul-23 18:30N 68°45' E 016°46'611.5
2017-Jul-23 18:00N 68°50' E 016°53'611.4
2017-Jul-23 17:30N 68°55' E 017°02'611.3
2017-Jul-23 17:00N 68°59' E 017°12'611.1
2017-Jul-23 16:30N 69°03' E 017°21'510.4
2017-Jul-23 16:00N 69°07' E 017°32'611.2
2017-Jul-23 15:30N 69°09' E 017°47'511.0
2017-Jul-23 15:00N 69°11' E 018°01'5 9.2
2017-Jul-23 14:30N 69°16' E 017°58'510.3
2017-Jul-23 14:00N 69°20' E 018°04'510.0
2017-Jul-23 13:30N 69°25' E 018°07'5 9.4
2017-Jul-23 13:01N 69°30' E 018°13'510.8
2017-Jul-23 12:31N 69°32' E 018°27'510.4
2017-Jul-23 12:00N 69°33' E 018°41'5 9.6
2017-Jul-23 11:30N 69°36' E 018°52'510.2
2017-Jul-23 11:00N 69°41' E 018°54'611.4
2017-Jul-23 10:30N 69°46' E 019°05'510.8
2017-Jul-23 10:00N 69°48' E 019°20'511.1
2017-Jul-23 09:30N 69°50' E 019°35'510.7
2017-Jul-23 09:00N 69°52' E 019°48'611.3
2017-Jul-23 08:31N 69°57' E 019°58'611.2
2017-Jul-23 08:00N 70°01' E 020°07'611.4
2017-Jul-23 07:30N 70°07' E 020°14'611.1
2017-Jul-23 07:00N 70°12' E 020°21'611.2
2017-Jul-23 06:30N 70°16' E 020°31'611.4
2017-Jul-23 06:00N 70°21' E 020°41'611.2
2017-Jul-23 05:30N 70°25' E 020°52'511.2
2017-Jul-23 05:00N 70°29' E 021°03'611.4
2017-Jul-23 04:30N 70°33' E 021°15'611.3
2017-Jul-23 04:00N 70°37' E 021°27'611.3
2017-Jul-23 03:30N 70°41' E 021°40'511.1
2017-Jul-23 03:00N 70°45' E 021°52'610.9
2017-Jul-23 02:30N 70°47' E 022°07'611.3
2017-Jul-23 02:00N 70°50' E 022°22'611.1
2017-Jul-23 01:30N 70°52' E 022°38'510.5
2017-Jul-23 01:00N 70°54' E 022°53'5 9.7
2017-Jul-23 00:30N 70°55' E 023°07'510.2
2017-Jul-23 00:00N 70°55' E 023°23'510.9
2017-Jul-22 23:30N 70°54' E 023°39'612.3
2017-Jul-22 23:00N 70°54' E 023°58'510.5
2017-Jul-22 22:30N 70°55' E 024°14'611.2
2017-Jul-22 22:00N 70°59' E 024°25'510.0
2017-Jul-22 21:31N 71°02' E 024°38'611.0
2017-Jul-22 21:00N 70°60' E 024°54'611.5
2017-Jul-22 20:30N 70°59' E 025°12'510.7
2017-Jul-22 20:00N 70°58' E 025°27'510.1
2017-Jul-22 19:30N 70°56' E 025°41'510.9
2017-Jul-22 19:00N 70°58' E 025°57'1 2.0
2017-Jul-22 18:28N 70°59' E 025°58'0 0.0
2017-Jul-22 17:58N 70°59' E 025°58'0 0.0
2017-Jul-22 17:28N 70°59' E 025°58'0 0.0
2017-Jul-22 16:58N 70°59' E 025°58'0 0.0
2017-Jul-22 16:28N 70°59' E 025°58'0 0.0
2017-Jul-22 15:58N 70°59' E 025°58'0 0.0
2017-Jul-22 15:28N 70°59' E 025°58'0 0.0
2017-Jul-22 14:58N 70°59' E 025°58'0 0.0
2017-Jul-22 13:58N 70°59' E 025°58'0 0.0
2017-Jul-22 13:28N 70°59' E 025°58'0 0.0
2017-Jul-22 12:58N 70°59' E 025°58'0 0.0
2017-Jul-22 12:28N 70°59' E 025°58'0 0.0
2017-Jul-22 11:58N 70°59' E 025°58'0 0.0
2017-Jul-22 11:28N 70°59' E 025°58'0 0.0
2017-Jul-22 10:58N 70°59' E 025°58'0 0.0
2017-Jul-22 10:28N 70°59' E 025°58'0 0.0
2017-Jul-22 10:00N 70°59' E 025°58'0 0.6
2017-Jul-22 09:30N 70°59' E 025°57'4 7.1
2017-Jul-22 09:00N 70°57' E 026°06'815.3
2017-Jul-22 08:30N 71°04' E 026°18'714.6
2017-Jul-22 08:00N 71°10' E 026°05'815.3
2017-Jul-22 07:30N 71°12' E 025°42'612.1
2017-Jul-22 07:00N 71°12' E 025°23'510.4
2017-Jul-22 06:30N 71°13' E 025°07'713.4
2017-Jul-22 06:00N 71°12' E 024°46'714.9
2017-Jul-22 05:30N 71°12' E 024°23'815.2
2017-Jul-22 05:00N 71°11' E 024°00'815.5
2017-Jul-22 04:30N 71°07' E 023°38'816.0
2017-Jul-22 04:00N 71°03' E 023°17'815.7
2017-Jul-22 03:30N 70°59' E 022°57'815.4
2017-Jul-22 03:00N 70°55' E 022°37'815.8
2017-Jul-22 02:30N 70°51' E 022°17'816.0
2017-Jul-22 02:00N 70°46' E 021°56'816.2
2017-Jul-22 01:30N 70°41' E 021°37'817.4
2017-Jul-22 01:00N 70°35' E 021°19'917.0
2017-Jul-22 00:30N 70°28' E 021°02'816.8
2017-Jul-22 00:00N 70°22' E 020°45'917.0
2017-Jul-21 23:30N 70°16' E 020°29'917.1
2017-Jul-21 23:00N 70°09' E 020°16'816.7
2017-Jul-21 22:30N 70°01' E 020°05'816.6
2017-Jul-21 22:00N 69°54' E 019°53'816.6
2017-Jul-21 21:30N 69°49' E 019°33'817.0
2017-Jul-21 21:00N 69°46' E 019°10'815.3
2017-Jul-21 20:29N 69°41' E 018°53'3 6.7
2017-Jul-21 20:00N 69°38' E 018°57'1 1.4
2017-Jul-21 19:30N 69°39' E 018°58'0 0.0
2017-Jul-21 19:00N 69°39' E 018°58'0 0.0
2017-Jul-21 18:30N 69°39' E 018°58'0 0.0
2017-Jul-21 18:00N 69°39' E 018°58'0 0.0
2017-Jul-21 17:30N 69°39' E 018°58'0 0.0
2017-Jul-21 17:00N 69°39' E 018°58'0 0.0
2017-Jul-21 16:30N 69°39' E 018°58'0 0.0
2017-Jul-21 16:00N 69°39' E 018°58'0 0.0
2017-Jul-21 15:30N 69°39' E 018°58'0 0.0
2017-Jul-21 15:00N 69°39' E 018°58'0 0.0
2017-Jul-21 14:30N 69°39' E 018°58'0 0.0
2017-Jul-21 14:00N 69°39' E 018°58'0 0.0
2017-Jul-21 13:30N 69°39' E 018°58'0 0.0
2017-Jul-21 13:00N 69°39' E 018°58'0 0.0
2017-Jul-21 12:30N 69°39' E 018°58'0 0.0
2017-Jul-21 12:00N 69°39' E 018°58'0 0.0
2017-Jul-21 11:30N 69°39' E 018°58'0 0.0
2017-Jul-21 11:00N 69°39' E 018°58'0 0.0
2017-Jul-21 10:30N 69°39' E 018°58'0 0.0
2017-Jul-21 10:00N 69°39' E 018°58'0 0.0
2017-Jul-21 09:30N 69°39' E 018°58'0 0.0
2017-Jul-21 09:00N 69°39' E 018°58'0 0.0
2017-Jul-21 08:30N 69°39' E 018°58'0 0.0
2017-Jul-21 08:00N 69°39' E 018°58'0 0.0
2017-Jul-21 07:30N 69°39' E 018°58'0 0.0
2017-Jul-21 07:00N 69°39' E 018°58'0 0.0
2017-Jul-21 06:30N 69°39' E 018°58'0 0.0
2017-Jul-21 06:00N 69°39' E 018°58'0 1.0
2017-Jul-21 05:30N 69°38' E 018°57'611.2
2017-Jul-21 05:00N 69°34' E 018°47'612.6
2017-Jul-21 04:30N 69°32' E 018°30'713.7
2017-Jul-21 04:00N 69°29' E 018°13'713.6
2017-Jul-21 03:30N 69°23' E 018°05'713.9
2017-Jul-21 03:00N 69°16' E 017°58'612.4
2017-Jul-21 02:30N 69°10' E 017°59'815.6
2017-Jul-21 02:00N 69°07' E 017°39'815.2
2017-Jul-21 01:30N 69°03' E 017°21'815.7
2017-Jul-21 01:00N 68°57' E 017°08'816.1
2017-Jul-21 00:30N 68°50' E 016°55'815.7
2017-Jul-21 00:00N 68°43' E 016°44'815.0
2017-Jul-20 23:30N 68°37' E 016°34'611.1
2017-Jul-20 23:00N 68°34' E 016°21'714.1
2017-Jul-20 22:30N 68°29' E 016°07'815.7
2017-Jul-20 22:00N 68°22' E 015°60'815.4
2017-Jul-20 21:30N 68°16' E 015°46'815.3
2017-Jul-20 21:00N 68°12' E 015°29'713.6
2017-Jul-20 20:30N 68°10' E 015°11'4 8.2
2017-Jul-20 20:00N 68°07' E 015°03'2 3.9
2017-Jul-20 19:30N 68°06' E 014°58'611.3
2017-Jul-20 18:59N 68°12' E 014°55'815.5
2017-Jul-20 18:30N 68°19' E 014°58'2 4.9
2017-Jul-20 17:59N 68°22' E 014°57'3 5.4
2017-Jul-20 17:30N 68°19' E 014°58'611.6
2017-Jul-20 17:00N 68°14' E 014°54'5 9.3
2017-Jul-20 16:30N 68°10' E 014°46'5 9.9
2017-Jul-20 15:59N 68°13' E 014°34'0 0.1
2017-Jul-20 15:29N 68°13' E 014°34'0 0.0
2017-Jul-20 14:59N 68°13' E 014°34'0 0.0
2017-Jul-20 13:59N 68°13' E 014°34'0 0.0
2017-Jul-20 13:29N 68°13' E 014°34'0 0.0
2017-Jul-20 12:59N 68°13' E 014°34'0 0.0
2017-Jul-20 12:29N 68°13' E 014°34'0 0.0
2017-Jul-20 11:59N 68°13' E 014°34'0 0.0
2017-Jul-20 11:29N 68°13' E 014°34'0 0.0
2017-Jul-20 10:59N 68°13' E 014°34'0 0.0
2017-Jul-20 10:29N 68°13' E 014°34'0 0.0
2017-Jul-20 09:59N 68°13' E 014°34'0 0.0
2017-Jul-20 09:29N 68°13' E 014°34'0 0.0
2017-Jul-20 08:59N 68°13' E 014°34'0 0.0
2017-Jul-20 08:29N 68°13' E 014°34'0 0.0
2017-Jul-20 07:59N 68°13' E 014°34'0 0.0
2017-Jul-20 07:29N 68°13' E 014°34'0 0.0
2017-Jul-20 06:59N 68°13' E 014°34'0 0.0
2017-Jul-20 06:29N 68°13' E 014°34'0 0.0
2017-Jul-20 05:59N 68°13' E 014°34'0 0.9
2017-Jul-20 05:30N 68°13' E 014°34'612.0
2017-Jul-20 05:00N 68°07' E 014°30'612.9
2017-Jul-20 04:30N 68°01' E 014°24'713.3
2017-Jul-20 04:00N 67°54' E 014°18'713.2
2017-Jul-20 03:30N 67°48' E 014°13'713.0
2017-Jul-20 03:00N 67°42' E 014°12'713.3
2017-Jul-20 02:30N 67°35' E 014°16'713.4
2017-Jul-20 02:00N 67°29' E 014°23'613.0
2017-Jul-20 01:30N 67°23' E 014°25'714.1
2017-Jul-20 01:00N 67°17' E 014°15'714.0
2017-Jul-20 00:30N 67°11' E 014°05'714.1
2017-Jul-20 00:00N 67°05' E 013°56'714.4
2017-Jul-19 23:30N 66°60' E 013°43'612.5
2017-Jul-19 23:00N 66°57' E 013°29'611.6
2017-Jul-19 22:30N 66°52' E 013°21'612.6
2017-Jul-19 22:00N 66°46' E 013°14'714.0
2017-Jul-19 21:30N 66°40' E 013°07'713.2
2017-Jul-19 21:00N 66°33' E 013°03'510.2
2017-Jul-19 20:30N 66°28' E 012°60'714.2
2017-Jul-19 20:00N 66°21' E 012°58'714.0
2017-Jul-19 19:30N 66°14' E 012°54'714.2
2017-Jul-19 19:00N 66°08' E 012°47'714.0
2017-Jul-19 18:30N 66°02' E 012°36'713.8
2017-Jul-19 18:00N 65°57' E 012°26'713.8
2017-Jul-19 17:30N 65°50' E 012°22'713.9
2017-Jul-19 17:00N 65°44' E 012°17'713.8
2017-Jul-19 16:30N 65°37' E 012°12'713.6
2017-Jul-19 16:00N 65°32' E 012°02'713.2
2017-Jul-19 15:30N 65°25' E 011°56'611.4
2017-Jul-19 15:00N 65°20' E 012°02'714.0
2017-Jul-19 14:30N 65°14' E 011°55'713.9
2017-Jul-19 14:00N 65°07' E 011°49'714.3
2017-Jul-19 13:31N 65°01' E 011°42'713.8
2017-Jul-19 13:01N 64°57' E 011°29'714.0
2017-Jul-19 12:30N 64°52' E 011°17'611.7
2017-Jul-19 12:00N 64°48' E 011°07'714.2
2017-Jul-19 11:30N 64°43' E 010°55'713.9
2017-Jul-19 11:00N 64°40' E 010°40'714.0
2017-Jul-19 10:29N 64°37' E 010°25'713.9
2017-Jul-19 10:00N 64°34' E 010°11'5813.9
2017-Jul-19 05:51N 63°60' E 008°23'514.4
2017-Jul-19 05:30N 63°56' E 008°15'714.2
2017-Jul-19 05:00N 63°51' E 008°04'714.0
2017-Jul-19 04:30N 63°46' E 007°53'714.2
2017-Jul-19 04:00N 63°41' E 007°42'714.2
2017-Jul-19 03:29N 63°35' E 007°32'714.1
2017-Jul-19 03:00N 63°30' E 007°21'714.7
2017-Jul-19 02:31N 63°25' E 007°10'714.7
2017-Jul-19 02:00N 63°19' E 006°59'815.7
2017-Jul-19 01:30N 63°13' E 006°48'815.6
2017-Jul-19 01:00N 63°07' E 006°36'815.7
2017-Jul-19 00:30N 63°02' E 006°24'815.8
2017-Jul-19 00:00N 62°56' E 006°14'815.4
2017-Jul-18 23:30N 62°50' E 006°02'815.4
2017-Jul-18 23:00N 62°44' E 005°51'815.4
2017-Jul-18 22:30N 62°38' E 005°43'713.8
2017-Jul-18 22:00N 62°31' E 005°42'815.2
2017-Jul-18 21:30N 62°27' E 005°56'713.2
2017-Jul-18 21:00N 62°28' E 006°10'1 1.3
2017-Jul-18 20:29N 62°28' E 006°09'0 0.0
2017-Jul-18 19:59N 62°28' E 006°09'0 0.0
2017-Jul-18 19:29N 62°28' E 006°09'0 0.0
2017-Jul-18 18:59N 62°28' E 006°09'0 0.0
2017-Jul-18 18:29N 62°28' E 006°09'0 0.0
2017-Jul-18 17:59N 62°28' E 006°09'0 0.0
2017-Jul-18 17:29N 62°28' E 006°09'0 0.0
2017-Jul-18 16:59N 62°28' E 006°09'0 0.0
2017-Jul-18 16:29N 62°28' E 006°09'0 0.0
2017-Jul-18 15:59N 62°28' E 006°09'0 0.0
2017-Jul-18 15:29N 62°28' E 006°09'0 0.0
2017-Jul-18 14:59N 62°28' E 006°09'0 0.0
2017-Jul-18 13:56N 62°28' E 006°09'0 0.0
2017-Jul-18 13:29N 62°28' E 006°09'0 0.0
2017-Jul-18 12:59N 62°28' E 006°09'0 0.0
2017-Jul-18 12:29N 62°28' E 006°09'0 0.0
2017-Jul-18 11:59N 62°28' E 006°09'0 0.0
2017-Jul-18 11:29N 62°28' E 006°09'0 0.0
2017-Jul-18 10:59N 62°28' E 006°09'0 0.0
2017-Jul-18 10:29N 62°28' E 006°09'0 0.0
2017-Jul-18 09:59N 62°28' E 006°09'0 0.0
2017-Jul-18 09:29N 62°28' E 006°09'0 0.0
2017-Jul-18 08:59N 62°28' E 006°09'0 0.0
2017-Jul-18 08:29N 62°28' E 006°09'0 0.0
2017-Jul-18 07:59N 62°28' E 006°09'0 0.0
2017-Jul-18 07:30N 62°28' E 006°09'0 0.3
2017-Jul-18 07:00N 62°28' E 006°09'5 9.4
2017-Jul-18 06:30N 62°27' E 005°59'612.9
2017-Jul-18 06:00N 62°29' E 005°46'613.1
2017-Jul-18 05:30N 62°31' E 005°33'713.1
2017-Jul-18 05:00N 62°29' E 005°19'713.9
2017-Jul-18 04:30N 62°24' E 005°08'713.8
2017-Jul-18 04:00N 62°18' E 005°01'714.4
2017-Jul-18 03:30N 62°12' E 004°55'713.9
2017-Jul-18 03:00N 62°06' E 004°48'714.0
2017-Jul-18 02:30N 61°59' E 004°42'714.6
2017-Jul-18 02:00N 61°53' E 004°35'714.6
2017-Jul-18 01:30N 61°46' E 004°29'714.4
2017-Jul-18 01:00N 61°39' E 004°23'714.3
2017-Jul-18 00:29N 61°32' E 004°23'714.5
2017-Jul-18 00:00N 61°25' E 004°23'714.2
2017-Jul-17 23:30N 61°18' E 004°22'714.5
2017-Jul-17 23:00N 61°11' E 004°21'816.6
2017-Jul-17 22:30N 61°02' E 004°21'816.4
2017-Jul-17 22:00N 60°54' E 004°25'714.1
2017-Jul-17 21:30N 60°53' E 004°40'713.2
2017-Jul-17 21:00N 60°59' E 004°45'816.3
2017-Jul-17 20:30N 61°03' E 004°58'815.5
2017-Jul-17 20:00N 61°06' E 005°13'815.1
2017-Jul-17 19:30N 61°04' E 005°29'815.4
2017-Jul-17 19:00N 61°08' E 005°43'815.7
2017-Jul-17 18:30N 61°08' E 005°60'815.5
2017-Jul-17 18:00N 61°07' E 006°16'714.7
2017-Jul-17 17:29N 61°07' E 006°31'713.6
2017-Jul-17 16:59N 61°10' E 006°44'715.1
2017-Jul-17 16:30N 61°06' E 006°57'815.1
2017-Jul-17 16:00N 60°60' E 007°04'713.0
2017-Jul-17 15:30N 60°54' E 007°09'2 2.9
2017-Jul-17 14:59N 60°52' E 007°08'0 0.1
2017-Jul-17 14:29N 60°52' E 007°08'0 0.1
2017-Jul-17 13:59N 60°52' E 007°08'0 0.0
2017-Jul-17 13:23N 60°52' E 007°08'0 0.1
2017-Jul-17 12:59N 60°52' E 007°08'0 0.1
2017-Jul-17 12:29N 60°52' E 007°08'0 0.0
2017-Jul-17 11:59N 60°52' E 007°08'0 0.0
2017-Jul-17 11:29N 60°52' E 007°08'0 0.0
2017-Jul-17 10:59N 60°52' E 007°08'0 0.0
2017-Jul-17 10:29N 60°52' E 007°08'0 0.1
2017-Jul-17 09:59N 60°52' E 007°08'0 0.2
2017-Jul-17 09:29N 60°52' E 007°08'0 0.0
2017-Jul-17 08:59N 60°52' E 007°08'0 0.0
2017-Jul-17 08:29N 60°52' E 007°08'0 0.0
2017-Jul-17 07:59N 60°52' E 007°08'0 0.0
2017-Jul-17 07:29N 60°52' E 007°08'0 0.0
2017-Jul-17 06:59N 60°52' E 007°08'0 0.1
2017-Jul-17 06:29N 60°52' E 007°08'0 0.0
2017-Jul-17 05:59N 60°52' E 007°08'0 0.8
2017-Jul-17 05:30N 60°52' E 007°08'4 8.7
2017-Jul-17 05:00N 60°57' E 007°09'611.8
2017-Jul-17 04:30N 61°02' E 007°02'611.2
2017-Jul-17 04:00N 61°07' E 006°56'611.5
2017-Jul-17 03:30N 61°10' E 006°46'510.9
2017-Jul-17 03:00N 61°10' E 006°35'611.3
2017-Jul-17 02:30N 61°06' E 006°26'612.0
2017-Jul-17 02:00N 61°07' E 006°14'713.8
2017-Jul-17 01:30N 61°08' E 005°60'713.8
2017-Jul-17 01:00N 61°08' E 005°46'713.7
2017-Jul-17 00:29N 61°05' E 005°32'613.3
2017-Jul-17 00:00N 61°04' E 005°19'713.5
2017-Jul-16 23:30N 61°05' E 005°05'816.8
2017-Jul-16 23:00N 61°01' E 004°50'815.7
2017-Jul-16 22:30N 60°54' E 004°41'815.3
2017-Jul-16 22:00N 60°47' E 004°45'510.0
2017-Jul-16 21:30N 60°44' E 004°37'817.1
2017-Jul-16 21:00N 60°37' E 004°27'46216.4
2017-Jul-15 16:53N 52°60' E 002°27'818.0
2017-Jul-15 16:27N 52°52' E 002°26'917.3
2017-Jul-15 15:57N 52°43' E 002°23'917.5
2017-Jul-15 15:26N 52°34' E 002°22'1217.3
2017-Jul-15 14:45N 52°23' E 002°19'1216.5
2017-Jul-15 14:00N 52°10' E 002°17'1516.2
2017-Jul-15 13:05N 51°56' E 002°15'316.0
2017-Jul-15 12:53N 51°52' E 002°13'1415.6
2017-Jul-15 12:00N 51°41' E 002°02'715.1
2017-Jul-15 11:30N 51°35' E 001°54'815.8
2017-Jul-15 11:00N 51°31' E 001°43'816.0
2017-Jul-15 10:31N 51°27' E 001°32'612.7
2017-Jul-15 10:01N 51°28' E 001°22'816.1
2017-Jul-15 09:30N 51°29' E 001°09'815.4
2017-Jul-15 09:00N 51°29' E 000°57'917.2
2017-Jul-15 08:30N 51°30' E 000°43'917.2
2017-Jul-15 08:01N 51°30' E 000°30'510.8
2017-Jul-15 07:31N 51°27' E 000°23'4 7.4
2017-Jul-15 07:01N 51°27' E 000°17'612.4
2017-Jul-15 06:30N 51°31' E 000°08'5 9.9
2017-Jul-15 06:00N 51°30' E 000°00'3 3.1
2017-Jul-15 04:57N 51°30' W 000°05'0 0.1
2017-Jul-15 04:30N 51°30' W 000°05'0 0.0
2017-Jul-15 04:00N 51°30' W 000°05'0 0.0
2017-Jul-15 03:30N 51°30' W 000°05'0 0.0
2017-Jul-15 03:00N 51°30' W 000°05'0 0.0
2017-Jul-15 02:30N 51°30' W 000°05'0 0.0
2017-Jul-15 02:00N 51°30' W 000°05'0 0.0
2017-Jul-14 20:42N 51°30' W 000°05'0 0.0
2017-Jul-14 20:18N 51°30' W 000°05'0 0.0
2017-Jul-14 19:54N 51°30' W 000°05'0 0.0
2017-Jul-14 19:30N 51°30' W 000°05'0 0.0
2017-Jul-14 19:00N 51°30' W 000°05'0 0.0
2017-Jul-14 18:24N 51°30' W 000°05'0 0.0
2017-Jul-14 18:00N 51°30' W 000°05'0 0.0
2017-Jul-14 17:30N 51°30' W 000°05'0 0.0
2017-Jul-14 17:00N 51°30' W 000°05'0 0.0
2017-Jul-14 16:30N 51°30' W 000°05'0 0.0
2017-Jul-14 16:00N 51°30' W 000°05'0 0.0
2017-Jul-14 15:30N 51°30' W 000°05'0 0.0
2017-Jul-14 14:42N 51°30' W 000°05'0 0.0
2017-Jul-14 14:30N 51°30' W 000°05'  
Track history (hours):
 
Tides and Currents Weather Stations Pressure Air Temp Water Temp Dewpoint Dewpoint Depression Visibility Wind Speed Wind Dir Waves Ship Positions

Silver Wind

Operator: V Ships Leisure

Last reported at 2017-Jul-24 08:00 UTC. Time now 2017-Jul-24 08:24 UTC.
Position N 67°17' E 014°23'.

Length 156 m; draft 5.7 m.

Type: Passenger vessel. MMSI: 308814000.

Date/timePositionNaut miles runAvg speedWind from/ knotsBaromVisibWave heightAir tempDewpointWater temp
2017-Jul-24 08:00N 67°17' E 014°23'0 0.0
2017-Jul-24 07:30N 67°17' E 014°23'0 0.0
2017-Jul-24 07:00N 67°17' E 014°23'0 0.0
2017-Jul-24 06:30N 67°17' E 014°23'0 0.0
2017-Jul-24 06:00N 67°17' E 014°23'0 0.0
2017-Jul-24 05:30N 67°17' E 014°23'2 4.6
2017-Jul-24 05:00N 67°17' E 014°17'4 9.0
2017-Jul-24 04:31N 67°21' E 014°22'510.5
2017-Jul-24 04:00N 67°26' E 014°27'611.5
2017-Jul-24 03:30N 67°31' E 014°20'611.9
2017-Jul-24 03:00N 67°37' E 014°15'611.4
2017-Jul-24 02:30N 67°42' E 014°12'510.9
2017-Jul-24 02:00N 67°48' E 014°13'611.3
2017-Jul-24 01:30N 67°52' E 014°21'611.4
2017-Jul-24 01:01N 67°57' E 014°30'611.1
2017-Jul-24 00:30N 68°01' E 014°41'510.8
2017-Jul-24 00:00N 68°04' E 014°52'610.9
2017-Jul-23 23:30N 68°07' E 015°04'611.2
2017-Jul-23 23:00N 68°10' E 015°17'611.5
2017-Jul-23 22:30N 68°12' E 015°31'611.3
2017-Jul-23 22:00N 68°15' E 015°44'611.5
2017-Jul-23 21:30N 68°19' E 015°56'611.6
2017-Jul-23 21:00N 68°24' E 016°02'510.6
2017-Jul-23 20:30N 68°29' E 016°07'611.0
2017-Jul-23 20:00N 68°33' E 016°18'611.1
2017-Jul-23 19:30N 68°35' E 016°32'611.6
2017-Jul-23 19:01N 68°40' E 016°38'611.3
2017-Jul-23 18:30N 68°45' E 016°46'611.5
2017-Jul-23 18:00N 68°50' E 016°53'611.4
2017-Jul-23 17:30N 68°55' E 017°02'611.3
2017-Jul-23 17:00N 68°59' E 017°12'611.1
2017-Jul-23 16:30N 69°03' E 017°21'510.4
2017-Jul-23 16:00N 69°07' E 017°32'611.2
2017-Jul-23 15:30N 69°09' E 017°47'511.0
2017-Jul-23 15:00N 69°11' E 018°01'5 9.2
2017-Jul-23 14:30N 69°16' E 017°58'510.3
2017-Jul-23 14:00N 69°20' E 018°04'510.0
2017-Jul-23 13:30N 69°25' E 018°07'5 9.4
2017-Jul-23 13:01N 69°30' E 018°13'510.8
2017-Jul-23 12:31N 69°32' E 018°27'510.4
2017-Jul-23 12:00N 69°33' E 018°41'5 9.6
2017-Jul-23 11:30N 69°36' E 018°52'510.2
2017-Jul-23 11:00N 69°41' E 018°54'611.4
2017-Jul-23 10:30N 69°46' E 019°05'510.8
2017-Jul-23 10:00N 69°48' E 019°20'511.1
2017-Jul-23 09:30N 69°50' E 019°35'510.7
2017-Jul-23 09:00N 69°52' E 019°48'611.3
2017-Jul-23 08:31N 69°57' E 019°58'611.2
2017-Jul-23 08:00N 70°01' E 020°07'611.4
2017-Jul-23 07:30N 70°07' E 020°14'611.1
2017-Jul-23 07:00N 70°12' E 020°21'611.2
2017-Jul-23 06:30N 70°16' E 020°31'611.4
2017-Jul-23 06:00N 70°21' E 020°41'611.2
2017-Jul-23 05:30N 70°25' E 020°52'511.2
2017-Jul-23 05:00N 70°29' E 021°03'611.4
2017-Jul-23 04:30N 70°33' E 021°15'611.3
2017-Jul-23 04:00N 70°37' E 021°27'611.3
2017-Jul-23 03:30N 70°41' E 021°40'511.1
2017-Jul-23 03:00N 70°45' E 021°52'610.9
2017-Jul-23 02:30N 70°47' E 022°07'611.3
2017-Jul-23 02:00N 70°50' E 022°22'611.1
2017-Jul-23 01:30N 70°52' E 022°38'510.5
2017-Jul-23 01:00N 70°54' E 022°53'5 9.7
2017-Jul-23 00:30N 70°55' E 023°07'510.2
2017-Jul-23 00:00N 70°55' E 023°23'510.9
2017-Jul-22 23:30N 70°54' E 023°39'612.3
2017-Jul-22 23:00N 70°54' E 023°58'510.5
2017-Jul-22 22:30N 70°55' E 024°14'611.2
2017-Jul-22 22:00N 70°59' E 024°25'510.0
2017-Jul-22 21:31N 71°02' E 024°38'611.0
2017-Jul-22 21:00N 70°60' E 024°54'611.5
2017-Jul-22 20:30N 70°59' E 025°12'510.7
2017-Jul-22 20:00N 70°58' E 025°27'510.1
2017-Jul-22 19:30N 70°56' E 025°41'510.9
2017-Jul-22 19:00N 70°58' E 025°57'1 2.0
2017-Jul-22 18:28N 70°59' E 025°58'0 0.0
2017-Jul-22 17:58N 70°59' E 025°58'0 0.0
2017-Jul-22 17:28N 70°59' E 025°58'0 0.0
2017-Jul-22 16:58N 70°59' E 025°58'0 0.0
2017-Jul-22 16:28N 70°59' E 025°58'0 0.0
2017-Jul-22 15:58N 70°59' E 025°58'0 0.0
2017-Jul-22 15:28N 70°59' E 025°58'0 0.0
2017-Jul-22 14:58N 70°59' E 025°58'0 0.0
2017-Jul-22 13:58N 70°59' E 025°58'0 0.0
2017-Jul-22 13:28N 70°59' E 025°58'0 0.0
2017-Jul-22 12:58N 70°59' E 025°58'0 0.0
2017-Jul-22 12:28N 70°59' E 025°58'0 0.0
2017-Jul-22 11:58N 70°59' E 025°58'0 0.0
2017-Jul-22 11:28N 70°59' E 025°58'0 0.0
2017-Jul-22 10:58N 70°59' E 025°58'0 0.0
2017-Jul-22 10:28N 70°59' E 025°58'0 0.0
2017-Jul-22 10:00N 70°59' E 025°58'0 0.6
2017-Jul-22 09:30N 70°59' E 025°57'4 7.1
2017-Jul-22 09:00N 70°57' E 026°06'815.3
2017-Jul-22 08:30N 71°04' E 026°18'714.6
2017-Jul-22 08:00N 71°10' E 026°05'815.3
2017-Jul-22 07:30N 71°12' E 025°42'612.1
2017-Jul-22 07:00N 71°12' E 025°23'510.4
2017-Jul-22 06:30N 71°13' E 025°07'713.4
2017-Jul-22 06:00N 71°12' E 024°46'714.9
2017-Jul-22 05:30N 71°12' E 024°23'815.2
2017-Jul-22 05:00N 71°11' E 024°00'815.5
2017-Jul-22 04:30N 71°07' E 023°38'816.0
2017-Jul-22 04:00N 71°03' E 023°17'815.7
2017-Jul-22 03:30N 70°59' E 022°57'815.4
2017-Jul-22 03:00N 70°55' E 022°37'815.8
2017-Jul-22 02:30N 70°51' E 022°17'816.0
2017-Jul-22 02:00N 70°46' E 021°56'816.2
2017-Jul-22 01:30N 70°41' E 021°37'817.4
2017-Jul-22 01:00N 70°35' E 021°19'917.0
2017-Jul-22 00:30N 70°28' E 021°02'816.8
2017-Jul-22 00:00N 70°22' E 020°45'917.0
2017-Jul-21 23:30N 70°16' E 020°29'917.1
2017-Jul-21 23:00N 70°09' E 020°16'816.7
2017-Jul-21 22:30N 70°01' E 020°05'816.6
2017-Jul-21 22:00N 69°54' E 019°53'816.6
2017-Jul-21 21:30N 69°49' E 019°33'817.0
2017-Jul-21 21:00N 69°46' E 019°10'815.3
2017-Jul-21 20:29N 69°41' E 018°53'3 6.7
2017-Jul-21 20:00N 69°38' E 018°57'1 1.4
2017-Jul-21 19:30N 69°39' E 018°58'0 0.0
2017-Jul-21 19:00N 69°39' E 018°58'0 0.0
2017-Jul-21 18:30N 69°39' E 018°58'0 0.0
2017-Jul-21 18:00N 69°39' E 018°58'0 0.0
2017-Jul-21 17:30N 69°39' E 018°58'0 0.0
2017-Jul-21 17:00N 69°39' E 018°58'0 0.0
2017-Jul-21 16:30N 69°39' E 018°58'0 0.0
2017-Jul-21 16:00N 69°39' E 018°58'0 0.0
2017-Jul-21 15:30N 69°39' E 018°58'0 0.0
2017-Jul-21 15:00N 69°39' E 018°58'0 0.0
2017-Jul-21 14:30N 69°39' E 018°58'0 0.0
2017-Jul-21 14:00N 69°39' E 018°58'0 0.0
2017-Jul-21 13:30N 69°39' E 018°58'0 0.0
2017-Jul-21 13:00N 69°39' E 018°58'0 0.0
2017-Jul-21 12:30N 69°39' E 018°58'0 0.0
2017-Jul-21 12:00N 69°39' E 018°58'0 0.0
2017-Jul-21 11:30N 69°39' E 018°58'0 0.0
2017-Jul-21 11:00N 69°39' E 018°58'0 0.0
2017-Jul-21 10:30N 69°39' E 018°58'0 0.0
2017-Jul-21 10:00N 69°39' E 018°58'0 0.0
2017-Jul-21 09:30N 69°39' E 018°58'0 0.0
2017-Jul-21 09:00N 69°39' E 018°58'0 0.0
2017-Jul-21 08:30N 69°39' E 018°58'0 0.0
2017-Jul-21 08:00N 69°39' E 018°58'0 0.0
2017-Jul-21 07:30N 69°39' E 018°58'0 0.0
2017-Jul-21 07:00N 69°39' E 018°58'0 0.0
2017-Jul-21 06:30N 69°39' E 018°58'0 0.0
2017-Jul-21 06:00N 69°39' E 018°58'0 1.0
2017-Jul-21 05:30N 69°38' E 018°57'611.2
2017-Jul-21 05:00N 69°34' E 018°47'612.6
2017-Jul-21 04:30N 69°32' E 018°30'713.7
2017-Jul-21 04:00N 69°29' E 018°13'713.6
2017-Jul-21 03:30N 69°23' E 018°05'713.9
2017-Jul-21 03:00N 69°16' E 017°58'612.4
2017-Jul-21 02:30N 69°10' E 017°59'815.6
2017-Jul-21 02:00N 69°07' E 017°39'815.2
2017-Jul-21 01:30N 69°03' E 017°21'815.7
2017-Jul-21 01:00N 68°57' E 017°08'816.1
2017-Jul-21 00:30N 68°50' E 016°55'815.7
2017-Jul-21 00:00N 68°43' E 016°44'815.0
2017-Jul-20 23:30N 68°37' E 016°34'611.1
2017-Jul-20 23:00N 68°34' E 016°21'714.1
2017-Jul-20 22:30N 68°29' E 016°07'815.7
2017-Jul-20 22:00N 68°22' E 015°60'815.4
2017-Jul-20 21:30N 68°16' E 015°46'815.3
2017-Jul-20 21:00N 68°12' E 015°29'713.6
2017-Jul-20 20:30N 68°10' E 015°11'4 8.2
2017-Jul-20 20:00N 68°07' E 015°03'2 3.9
2017-Jul-20 19:30N 68°06' E 014°58'611.3
2017-Jul-20 18:59N 68°12' E 014°55'815.5
2017-Jul-20 18:30N 68°19' E 014°58'2 4.9
2017-Jul-20 17:59N 68°22' E 014°57'3 5.4
2017-Jul-20 17:30N 68°19' E 014°58'611.6
2017-Jul-20 17:00N 68°14' E 014°54'5 9.3
2017-Jul-20 16:30N 68°10' E 014°46'5 9.9
2017-Jul-20 15:59N 68°13' E 014°34'0 0.1
2017-Jul-20 15:29N 68°13' E 014°34'0 0.0
2017-Jul-20 14:59N 68°13' E 014°34'0 0.0
2017-Jul-20 13:59N 68°13' E 014°34'0 0.0
2017-Jul-20 13:29N 68°13' E 014°34'0 0.0
2017-Jul-20 12:59N 68°13' E 014°34'0 0.0
2017-Jul-20 12:29N 68°13' E 014°34'0 0.0
2017-Jul-20 11:59N 68°13' E 014°34'0 0.0
2017-Jul-20 11:29N 68°13' E 014°34'0 0.0
2017-Jul-20 10:59N 68°13' E 014°34'0 0.0
2017-Jul-20 10:29N 68°13' E 014°34'0 0.0
2017-Jul-20 09:59N 68°13' E 014°34'0 0.0
2017-Jul-20 09:29N 68°13' E 014°34'0 0.0
2017-Jul-20 08:59N 68°13' E 014°34'0 0.0
2017-Jul-20 08:29N 68°13' E 014°34'0 0.0
2017-Jul-20 07:59N 68°13' E 014°34'0 0.0
2017-Jul-20 07:29N 68°13' E 014°34'0 0.0
2017-Jul-20 06:59N 68°13' E 014°34'0 0.0
2017-Jul-20 06:29N 68°13' E 014°34'0 0.0
2017-Jul-20 05:59N 68°13' E 014°34'0 0.9
2017-Jul-20 05:30N 68°13' E 014°34'612.0
2017-Jul-20 05:00N 68°07' E 014°30'612.9
2017-Jul-20 04:30N 68°01' E 014°24'713.3
2017-Jul-20 04:00N 67°54' E 014°18'713.2
2017-Jul-20 03:30N 67°48' E 014°13'713.0
2017-Jul-20 03:00N 67°42' E 014°12'713.3
2017-Jul-20 02:30N 67°35' E 014°16'713.4
2017-Jul-20 02:00N 67°29' E 014°23'613.0
2017-Jul-20 01:30N 67°23' E 014°25'714.1
2017-Jul-20 01:00N 67°17' E 014°15'714.0
2017-Jul-20 00:30N 67°11' E 014°05'714.1
2017-Jul-20 00:00N 67°05' E 013°56'714.4
2017-Jul-19 23:30N 66°60' E 013°43'612.5
2017-Jul-19 23:00N 66°57' E 013°29'611.6
2017-Jul-19 22:30N 66°52' E 013°21'612.6
2017-Jul-19 22:00N 66°46' E 013°14'714.0
2017-Jul-19 21:30N 66°40' E 013°07'713.2
2017-Jul-19 21:00N 66°33' E 013°03'510.2
2017-Jul-19 20:30N 66°28' E 012°60'714.2
2017-Jul-19 20:00N 66°21' E 012°58'714.0
2017-Jul-19 19:30N 66°14' E 012°54'714.2
2017-Jul-19 19:00N 66°08' E 012°47'714.0
2017-Jul-19 18:30N 66°02' E 012°36'713.8
2017-Jul-19 18:00N 65°57' E 012°26'713.8
2017-Jul-19 17:30N 65°50' E 012°22'713.9
2017-Jul-19 17:00N 65°44' E 012°17'713.8
2017-Jul-19 16:30N 65°37' E 012°12'713.6
2017-Jul-19 16:00N 65°32' E 012°02'713.2
2017-Jul-19 15:30N 65°25' E 011°56'611.4
2017-Jul-19 15:00N 65°20' E 012°02'714.0
2017-Jul-19 14:30N 65°14' E 011°55'713.9
2017-Jul-19 14:00N 65°07' E 011°49'714.3
2017-Jul-19 13:31N 65°01' E 011°42'713.8
2017-Jul-19 13:01N 64°57' E 011°29'714.0
2017-Jul-19 12:30N 64°52' E 011°17'611.7
2017-Jul-19 12:00N 64°48' E 011°07'714.2
2017-Jul-19 11:30N 64°43' E 010°55'713.9
2017-Jul-19 11:00N 64°40' E 010°40'714.0
2017-Jul-19 10:29N 64°37' E 010°25'713.9
2017-Jul-19 10:00N 64°34' E 010°11'5813.9
2017-Jul-19 05:51N 63°60' E 008°23'514.4
2017-Jul-19 05:30N 63°56' E 008°15'714.2
2017-Jul-19 05:00N 63°51' E 008°04'714.0
2017-Jul-19 04:30N 63°46' E 007°53'714.2
2017-Jul-19 04:00N 63°41' E 007°42'714.2
2017-Jul-19 03:29N 63°35' E 007°32'714.1
2017-Jul-19 03:00N 63°30' E 007°21'714.7
2017-Jul-19 02:31N 63°25' E 007°10'714.7
2017-Jul-19 02:00N 63°19' E 006°59'815.7
2017-Jul-19 01:30N 63°13' E 006°48'815.6
2017-Jul-19 01:00N 63°07' E 006°36'815.7
2017-Jul-19 00:30N 63°02' E 006°24'815.8
2017-Jul-19 00:00N 62°56' E 006°14'815.4
2017-Jul-18 23:30N 62°50' E 006°02'815.4
2017-Jul-18 23:00N 62°44' E 005°51'815.4
2017-Jul-18 22:30N 62°38' E 005°43'713.8
2017-Jul-18 22:00N 62°31' E 005°42'815.2
2017-Jul-18 21:30N 62°27' E 005°56'713.2
2017-Jul-18 21:00N 62°28' E 006°10'1 1.3
2017-Jul-18 20:29N 62°28' E 006°09'0 0.0
2017-Jul-18 19:59N 62°28' E 006°09'0 0.0
2017-Jul-18 19:29N 62°28' E 006°09'0 0.0
2017-Jul-18 18:59N 62°28' E 006°09'0 0.0
2017-Jul-18 18:29N 62°28' E 006°09'0 0.0
2017-Jul-18 17:59N 62°28' E 006°09'0 0.0
2017-Jul-18 17:29N 62°28' E 006°09'0 0.0
2017-Jul-18 16:59N 62°28' E 006°09'0 0.0
2017-Jul-18 16:29N 62°28' E 006°09'0 0.0
2017-Jul-18 15:59N 62°28' E 006°09'0 0.0
2017-Jul-18 15:29N 62°28' E 006°09'0 0.0
2017-Jul-18 14:59N 62°28' E 006°09'0 0.0
2017-Jul-18 13:56N 62°28' E 006°09'0 0.0
2017-Jul-18 13:29N 62°28' E 006°09'0 0.0
2017-Jul-18 12:59N 62°28' E 006°09'0 0.0
2017-Jul-18 12:29N 62°28' E 006°09'0 0.0
2017-Jul-18 11:59N 62°28' E 006°09'0 0.0
2017-Jul-18 11:29N 62°28' E 006°09'0 0.0
2017-Jul-18 10:59N 62°28' E 006°09'0 0.0
2017-Jul-18 10:29N 62°28' E 006°09'0 0.0
2017-Jul-18 09:59N 62°28' E 006°09'0 0.0
2017-Jul-18 09:29N 62°28' E 006°09'0 0.0
2017-Jul-18 08:59N 62°28' E 006°09'0 0.0
2017-Jul-18 08:29N 62°28' E 006°09'0 0.0
2017-Jul-18 07:59N 62°28' E 006°09'0 0.0
2017-Jul-18 07:30N 62°28' E 006°09'0 0.3
2017-Jul-18 07:00N 62°28' E 006°09'5 9.4
2017-Jul-18 06:30N 62°27' E 005°59'612.9
2017-Jul-18 06:00N 62°29' E 005°46'613.1
2017-Jul-18 05:30N 62°31' E 005°33'713.1
2017-Jul-18 05:00N 62°29' E 005°19'713.9
2017-Jul-18 04:30N 62°24' E 005°08'713.8
2017-Jul-18 04:00N 62°18' E 005°01'714.4
2017-Jul-18 03:30N 62°12' E 004°55'713.9
2017-Jul-18 03:00N 62°06' E 004°48'714.0
2017-Jul-18 02:30N 61°59' E 004°42'714.6
2017-Jul-18 02:00N 61°53' E 004°35'714.6
2017-Jul-18 01:30N 61°46' E 004°29'714.4
2017-Jul-18 01:00N 61°39' E 004°23'714.3
2017-Jul-18 00:29N 61°32' E 004°23'714.5
2017-Jul-18 00:00N 61°25' E 004°23'714.2
2017-Jul-17 23:30N 61°18' E 004°22'714.5
2017-Jul-17 23:00N 61°11' E 004°21'816.6
2017-Jul-17 22:30N 61°02' E 004°21'816.4
2017-Jul-17 22:00N 60°54' E 004°25'714.1
2017-Jul-17 21:30N 60°53' E 004°40'713.2
2017-Jul-17 21:00N 60°59' E 004°45'816.3
2017-Jul-17 20:30N 61°03' E 004°58'815.5
2017-Jul-17 20:00N 61°06' E 005°13'815.1
2017-Jul-17 19:30N 61°04' E 005°29'815.4
2017-Jul-17 19:00N 61°08' E 005°43'815.7
2017-Jul-17 18:30N 61°08' E 005°60'815.5
2017-Jul-17 18:00N 61°07' E 006°16'714.7
2017-Jul-17 17:29N 61°07' E 006°31'713.6
2017-Jul-17 16:59N 61°10' E 006°44'715.1
2017-Jul-17 16:30N 61°06' E 006°57'815.1
2017-Jul-17 16:00N 60°60' E 007°04'713.0
2017-Jul-17 15:30N 60°54' E 007°09'2 2.9
2017-Jul-17 14:59N 60°52' E 007°08'0 0.1
2017-Jul-17 14:29N 60°52' E 007°08'0 0.1
2017-Jul-17 13:59N 60°52' E 007°08'0 0.0
2017-Jul-17 13:23N 60°52' E 007°08'0 0.1
2017-Jul-17 12:59N 60°52' E 007°08'0 0.1
2017-Jul-17 12:29N 60°52' E 007°08'0 0.0
2017-Jul-17 11:59N 60°52' E 007°08'0 0.0
2017-Jul-17 11:29N 60°52' E 007°08'0 0.0
2017-Jul-17 10:59N 60°52' E 007°08'0 0.0
2017-Jul-17 10:29N 60°52' E 007°08'0 0.1
2017-Jul-17 09:59N 60°52' E 007°08'0 0.2
2017-Jul-17 09:29N 60°52' E 007°08'0 0.0
2017-Jul-17 08:59N 60°52' E 007°08'0 0.0
2017-Jul-17 08:29N 60°52' E 007°08'0 0.0
2017-Jul-17 07:59N 60°52' E 007°08'0 0.0
2017-Jul-17 07:29N 60°52' E 007°08'0 0.0
2017-Jul-17 06:59N 60°52' E 007°08'0 0.1
2017-Jul-17 06:29N 60°52' E 007°08'0 0.0
2017-Jul-17 05:59N 60°52' E 007°08'0 0.8
2017-Jul-17 05:30N 60°52' E 007°08'4 8.7
2017-Jul-17 05:00N 60°57' E 007°09'611.8
2017-Jul-17 04:30N 61°02' E 007°02'611.2
2017-Jul-17 04:00N 61°07' E 006°56'611.5
2017-Jul-17 03:30N 61°10' E 006°46'510.9
2017-Jul-17 03:00N 61°10' E 006°35'611.3
2017-Jul-17 02:30N 61°06' E 006°26'612.0
2017-Jul-17 02:00N 61°07' E 006°14'713.8
2017-Jul-17 01:30N 61°08' E 005°60'713.8
2017-Jul-17 01:00N 61°08' E 005°46'713.7
2017-Jul-17 00:29N 61°05' E 005°32'613.3
2017-Jul-17 00:00N 61°04' E 005°19'713.5
2017-Jul-16 23:30N 61°05' E 005°05'816.8
2017-Jul-16 23:00N 61°01' E 004°50'815.7
2017-Jul-16 22:30N 60°54' E 004°41'815.3
2017-Jul-16 22:00N 60°47' E 004°45'510.0
2017-Jul-16 21:30N 60°44' E 004°37'817.1
2017-Jul-16 21:00N 60°37' E 004°27'46216.4
2017-Jul-15 16:53N 52°60' E 002°27'818.0
2017-Jul-15 16:27N 52°52' E 002°26'917.3
2017-Jul-15 15:57N 52°43' E 002°23'917.5
2017-Jul-15 15:26N 52°34' E 002°22'1217.3
2017-Jul-15 14:45N 52°23' E 002°19'1216.5
2017-Jul-15 14:00N 52°10' E 002°17'1516.2
2017-Jul-15 13:05N 51°56' E 002°15'316.0
2017-Jul-15 12:53N 51°52' E 002°13'1415.6
2017-Jul-15 12:00N 51°41' E 002°02'715.1
2017-Jul-15 11:30N 51°35' E 001°54'815.8
2017-Jul-15 11:00N 51°31' E 001°43'816.0
2017-Jul-15 10:31N 51°27' E 001°32'612.7
2017-Jul-15 10:01N 51°28' E 001°22'816.1
2017-Jul-15 09:30N 51°29' E 001°09'815.4
2017-Jul-15 09:00N 51°29' E 000°57'917.2
2017-Jul-15 08:30N 51°30' E 000°43'917.2
2017-Jul-15 08:01N 51°30' E 000°30'510.8
2017-Jul-15 07:31N 51°27' E 000°23'4 7.4
2017-Jul-15 07:01N 51°27' E 000°17'612.4
2017-Jul-15 06:30N 51°31' E 000°08'5 9.9
2017-Jul-15 06:00N 51°30' E 000°00'3 3.1
2017-Jul-15 04:57N 51°30' W 000°05'0 0.1
2017-Jul-15 04:30N 51°30' W 000°05'0 0.0
2017-Jul-15 04:00N 51°30' W 000°05'0 0.0
2017-Jul-15 03:30N 51°30' W 000°05'0 0.0
2017-Jul-15 03:00N 51°30' W 000°05'0 0.0
2017-Jul-15 02:30N 51°30' W 000°05'0 0.0
2017-Jul-15 02:00N 51°30' W 000°05'0 0.0
2017-Jul-14 20:42N 51°30' W 000°05'0 0.0
2017-Jul-14 20:18N 51°30' W 000°05'0 0.0
2017-Jul-14 19:54N 51°30' W 000°05'0 0.0
2017-Jul-14 19:30N 51°30' W 000°05'0 0.0
2017-Jul-14 19:00N 51°30' W 000°05'0 0.0
2017-Jul-14 18:24N 51°30' W 000°05'0 0.0
2017-Jul-14 18:00N 51°30' W 000°05'0 0.0
2017-Jul-14 17:30N 51°30' W 000°05'0 0.0
2017-Jul-14 17:00N 51°30' W 000°05'0 0.0
2017-Jul-14 16:30N 51°30' W 000°05'0 0.0
2017-Jul-14 16:00N 51°30' W 000°05'0 0.0
2017-Jul-14 15:30N 51°30' W 000°05'0 0.0
2017-Jul-14 14:42N 51°30' W 000°05'0 0.0
2017-Jul-14 14:30N 51°30' W 000°05'  

Dump ship's entire track history